createdAt,value
2017-07-29T00:02:06.431Z,83.70
2017-07-29T00:04:39.996Z,83.60
2017-07-29T00:07:14.457Z,84.20
2017-07-29T00:09:48.073Z,84.10
2017-07-29T00:12:21.762Z,84.20
2017-07-29T00:14:56.290Z,84.00
2017-07-29T00:17:29.906Z,84.00
2017-07-29T00:20:04.436Z,83.60
2017-07-29T00:22:38.119Z,83.50
2017-07-29T00:25:12.010Z,83.30
2017-07-29T00:27:45.679Z,83.10
2017-07-29T00:30:19.371Z,82.50
2017-07-29T00:32:53.870Z,82.80
2017-07-29T00:35:27.722Z,82.60
2017-07-29T00:38:01.384Z,82.60
2017-07-29T00:40:35.902Z,81.70
2017-07-29T00:43:09.506Z,80.80
2017-07-29T00:45:44.006Z,82.20
2017-07-29T00:48:17.754Z,82.20
2017-07-29T00:50:51.461Z,80.50
2017-07-29T00:53:25.058Z,80.20
2017-07-29T00:55:59.531Z,81.50
2017-07-29T00:58:33.156Z,81.50
2017-07-29T01:01:06.873Z,80.70
2017-07-29T01:03:40.488Z,81.90
2017-07-29T01:06:14.214Z,80.90
2017-07-29T01:08:47.862Z,80.00
2017-07-29T01:11:21.485Z,79.90
2017-07-29T01:13:55.982Z,80.40
2017-07-29T01:16:29.792Z,80.30
2017-07-29T01:19:03.543Z,80.90
2017-07-29T01:21:37.177Z,80.00
2017-07-29T01:24:11.709Z,81.40
2017-07-29T01:26:45.301Z,81.40
2017-07-29T01:29:18.898Z,81.80
2017-07-29T01:31:52.524Z,82.00
2017-07-29T01:34:27.023Z,80.90
2017-07-29T01:37:00.652Z,81.10
2017-07-29T01:39:35.211Z,81.40
2017-07-29T01:42:08.910Z,81.30
2017-07-29T01:44:42.482Z,81.50
2017-07-29T01:47:16.803Z,81.20
2017-07-29T01:49:50.431Z,81.20
2017-07-29T01:52:23.995Z,81.10
2017-07-29T01:54:57.626Z,80.80
2017-07-29T01:57:31.330Z,80.70
2017-07-29T02:00:05.107Z,80.30
2017-07-29T02:02:38.724Z,80.10
2017-07-29T02:05:13.250Z,79.80
2017-07-29T02:07:47.052Z,79.80
2017-07-29T02:10:20.714Z,80.00
2017-07-29T02:12:55.075Z,79.90
2017-07-29T02:15:29.387Z,80.00
2017-07-29T02:18:02.998Z,80.10
2017-07-29T02:20:37.505Z,79.80
2017-07-29T02:23:11.172Z,79.70
2017-07-29T02:25:44.809Z,79.20
2017-07-29T02:28:18.392Z,79.20
2017-07-29T02:30:52.737Z,79.00
2017-07-29T02:33:26.324Z,79.00
2017-07-29T02:36:00.754Z,78.10
2017-07-29T02:38:34.345Z,78.00
2017-07-29T02:41:08.839Z,78.00
2017-07-29T02:43:42.466Z,78.00
2017-07-29T02:46:16.043Z,79.20
2017-07-29T02:48:49.576Z,79.20
2017-07-29T02:51:24.143Z,78.10
2017-07-29T02:53:57.722Z,78.10
2017-07-29T02:56:31.382Z,79.00
2017-07-29T02:59:04.976Z,78.30
2017-07-29T03:01:38.754Z,77.70
2017-07-29T03:04:12.502Z,77.40
2017-07-29T03:06:46.166Z,77.50
2017-07-29T03:09:19.707Z,77.80
2017-07-29T03:11:53.281Z,77.60
2017-07-29T03:14:27.033Z,76.70
2017-07-29T03:17:00.692Z,77.10
2017-07-29T03:19:35.105Z,77.30
2017-07-29T03:22:08.812Z,77.30
2017-07-29T03:24:42.435Z,75.80
2017-07-29T03:27:16.923Z,75.00
2017-07-29T03:29:50.558Z,75.00
2017-07-29T03:32:25.063Z,75.40
2017-07-29T03:34:58.653Z,75.30
2017-07-29T03:37:32.386Z,76.00
2017-07-29T03:40:06.097Z,76.20
2017-07-29T03:42:39.811Z,76.00
2017-07-29T03:45:13.456Z,77.00
2017-07-29T03:47:47.162Z,76.80
2017-07-29T03:50:20.898Z,76.60
2017-07-29T03:52:54.626Z,75.40
2017-07-29T03:55:28.387Z,75.70
2017-07-29T03:58:03.014Z,75.50
2017-07-29T04:00:36.604Z,75.50
2017-07-29T04:03:11.043Z,75.40
2017-07-29T04:05:44.652Z,75.30
2017-07-29T04:08:18.238Z,75.70
2017-07-29T04:10:51.819Z,75.70
2017-07-29T04:13:26.166Z,76.10
2017-07-29T04:15:59.748Z,75.90
2017-07-29T04:18:33.386Z,75.40
2017-07-29T04:21:06.951Z,75.60
2017-07-29T04:23:41.398Z,75.40
2017-07-29T04:26:16.022Z,75.20
2017-07-29T04:28:50.506Z,74.90
2017-07-29T04:31:24.365Z,74.70
2017-07-29T04:33:57.923Z,74.80
2017-07-29T04:36:32.278Z,74.10
2017-07-29T04:39:06.647Z,74.10
2017-07-29T04:41:40.429Z,74.00
2017-07-29T04:44:14.211Z,75.30
2017-07-29T04:46:48.798Z,74.30
2017-07-29T04:49:22.558Z,74.20
2017-07-29T04:51:56.234Z,74.40
2017-07-29T04:54:29.921Z,75.30
2017-07-29T04:57:03.477Z,75.50
2017-07-29T04:59:37.242Z,75.50
2017-07-29T05:02:10.914Z,75.90
2017-07-29T05:04:44.547Z,75.10
2017-07-29T05:07:19.049Z,75.20
2017-07-29T05:09:52.617Z,75.20
2017-07-29T05:12:27.163Z,74.90
2017-07-29T05:15:00.766Z,74.90
2017-07-29T05:17:35.286Z,75.10
2017-07-29T05:20:09.116Z,75.00
2017-07-29T05:22:42.797Z,74.50
2017-07-29T05:25:16.536Z,74.00
2017-07-29T05:27:50.141Z,74.20
2017-07-29T05:30:24.617Z,74.40
2017-07-29T05:32:58.483Z,74.20
2017-07-29T05:35:32.178Z,74.50
2017-07-29T05:38:05.743Z,75.00
2017-07-29T05:40:39.334Z,74.80
2017-07-29T05:43:12.967Z,75.00
2017-07-29T05:45:46.542Z,74.40
2017-07-29T05:48:20.102Z,75.20
2017-07-29T05:50:53.912Z,74.20
2017-07-29T05:53:27.742Z,73.70
2017-07-29T05:56:02.173Z,72.60
2017-07-29T05:58:35.790Z,72.50
2017-07-29T06:01:09.563Z,72.30
2017-07-29T06:03:43.148Z,72.50
2017-07-29T06:06:17.701Z,72.20
2017-07-29T06:08:52.214Z,72.20
2017-07-29T06:11:25.871Z,72.50
2017-07-29T06:13:59.565Z,72.90
2017-07-29T06:16:33.243Z,72.90
2017-07-29T06:19:06.935Z,73.00
2017-07-29T06:21:41.446Z,73.90
2017-07-29T06:24:15.076Z,73.80
2017-07-29T06:26:48.824Z,73.40
2017-07-29T06:29:22.469Z,72.90
2017-07-29T06:31:57.013Z,73.50
2017-07-29T06:34:30.585Z,73.30
2017-07-29T06:37:04.194Z,73.10
2017-07-29T06:39:37.951Z,72.40
2017-07-29T06:42:12.494Z,71.50
2017-07-29T06:44:46.091Z,71.50
2017-07-29T06:47:20.608Z,70.80
2017-07-29T06:49:54.174Z,70.60
2017-07-29T06:52:27.836Z,69.10
2017-07-29T06:55:02.338Z,69.00
2017-07-29T06:57:35.952Z,69.00
2017-07-29T07:00:09.552Z,69.50
2017-07-29T07:02:43.222Z,69.30
2017-07-29T07:05:16.847Z,69.40
2017-07-29T07:07:51.344Z,69.20
2017-07-29T07:10:26.013Z,69.40
2017-07-29T07:13:00.426Z,68.20
2017-07-29T07:15:34.043Z,68.20
2017-07-29T07:18:07.642Z,68.10
2017-07-29T07:20:42.024Z,70.00
2017-07-29T07:23:15.634Z,69.70
2017-07-29T07:25:49.285Z,68.70
2017-07-29T07:28:23.763Z,67.50
2017-07-29T07:30:57.450Z,67.50
2017-07-29T07:33:31.043Z,68.20
2017-07-29T07:36:04.807Z,68.00
2017-07-29T07:38:39.266Z,69.20
2017-07-29T07:41:12.933Z,69.20
2017-07-29T07:43:46.591Z,69.30
2017-07-29T07:46:20.936Z,69.10
2017-07-29T07:48:54.457Z,69.10
2017-07-29T07:51:28.177Z,69.30
2017-07-29T07:54:01.838Z,69.60
2017-07-29T07:56:35.441Z,70.70
2017-07-29T07:59:09.283Z,71.10
2017-07-29T08:01:43.027Z,71.10
2017-07-29T08:04:16.889Z,71.10
2017-07-29T08:06:50.705Z,69.80
2017-07-29T08:09:24.350Z,70.10
2017-07-29T08:11:58.061Z,70.10
2017-07-29T08:14:31.783Z,69.40
2017-07-29T08:17:05.487Z,68.50
2017-07-29T08:19:39.087Z,68.30
2017-07-29T08:22:12.750Z,69.10
2017-07-29T08:24:47.198Z,70.10
2017-07-29T08:27:20.809Z,70.10
2017-07-29T08:29:54.606Z,69.00
2017-07-29T08:32:28.198Z,68.80
2017-07-29T08:35:01.809Z,68.40
2017-07-29T08:37:36.413Z,69.00
2017-07-29T08:40:10.859Z,68.00
2017-07-29T08:42:44.413Z,67.90
2017-07-29T08:45:18.166Z,66.80
2017-07-29T08:47:51.772Z,65.60
2017-07-29T08:50:25.511Z,65.90
2017-07-29T08:52:59.098Z,66.00
2017-07-29T08:55:32.834Z,66.60
2017-07-29T08:58:06.426Z,67.00
2017-07-29T09:00:40.911Z,67.90
2017-07-29T09:03:15.398Z,67.80
2017-07-29T09:05:49.052Z,68.20
2017-07-29T09:08:22.648Z,67.50
2017-07-29T09:10:56.247Z,67.30
2017-07-29T09:13:29.851Z,68.50
2017-07-29T09:16:03.423Z,66.90
2017-07-29T09:18:37.949Z,65.30
2017-07-29T09:21:11.576Z,65.20
2017-07-29T09:23:45.170Z,65.40
2017-07-29T09:26:18.902Z,63.80
2017-07-29T09:28:52.555Z,63.60
2017-07-29T09:31:26.195Z,61.10
2017-07-29T09:33:59.770Z,59.60
2017-07-29T09:36:33.350Z,60.70
2017-07-29T09:39:06.984Z,61.10
2017-07-29T09:41:41.338Z,60.70
2017-07-29T09:44:15.071Z,61.40
2017-07-29T09:46:48.746Z,58.50
2017-07-29T09:49:22.388Z,57.60
2017-07-29T09:51:56.863Z,56.60
2017-07-29T09:54:31.402Z,55.50
2017-07-29T09:57:06.048Z,53.80
2017-07-29T09:59:40.538Z,53.60
2017-07-29T10:02:14.143Z,53.60
2017-07-29T10:04:47.828Z,55.00
2017-07-29T10:07:21.458Z,55.90
2017-07-29T10:09:55.040Z,56.30
2017-07-29T10:12:28.639Z,56.70
2017-07-29T10:15:02.231Z,57.10
2017-07-29T10:17:35.851Z,58.30
2017-07-29T10:20:09.706Z,59.30
2017-07-29T10:22:43.439Z,60.40
2017-07-29T10:25:17.084Z,61.80
2017-07-29T10:27:50.717Z,61.50
2017-07-29T10:30:24.359Z,62.20
2017-07-29T10:32:58.662Z,63.70
2017-07-29T10:35:32.381Z,63.50
2017-07-29T10:38:05.971Z,65.40
2017-07-29T10:40:40.590Z,66.20
2017-07-29T10:43:15.119Z,64.90
2017-07-29T10:45:48.946Z,64.70
2017-07-29T10:48:22.662Z,66.10
2017-07-29T10:50:56.511Z,66.20
2017-07-29T10:53:31.081Z,66.10
2017-07-29T10:56:04.635Z,66.40
2017-07-29T10:58:38.250Z,67.10
2017-07-29T11:01:11.830Z,66.10
2017-07-29T11:03:45.602Z,65.40
2017-07-29T11:06:19.159Z,63.50
2017-07-29T11:08:52.986Z,62.00
2017-07-29T11:11:26.671Z,62.60
2017-07-29T11:14:00.319Z,61.30
2017-07-29T11:16:34.006Z,60.80
2017-07-29T11:19:08.582Z,60.20
2017-07-29T11:21:42.272Z,60.10
2017-07-29T11:24:15.898Z,61.80
2017-07-29T11:26:49.475Z,62.00
2017-07-29T11:29:23.094Z,62.70
2017-07-29T11:31:56.747Z,63.00
2017-07-29T11:34:31.198Z,64.50
2017-07-29T11:37:05.743Z,65.30
2017-07-29T11:39:39.478Z,64.40
2017-07-29T11:42:13.159Z,64.30
2017-07-29T11:44:47.558Z,58.90
2017-07-29T11:47:21.323Z,59.40
2017-07-29T11:49:55.918Z,53.70
2017-07-29T11:52:29.558Z,53.70
2017-07-29T11:55:03.207Z,54.40
2017-07-29T11:57:36.861Z,54.10
2017-07-29T12:00:10.514Z,53.90
2017-07-29T12:02:45.012Z,56.50
2017-07-29T12:05:18.735Z,56.50
2017-07-29T12:07:52.318Z,57.30
2017-07-29T12:10:25.942Z,58.40
2017-07-29T12:13:00.246Z,59.80
2017-07-29T12:15:34.794Z,59.80
2017-07-29T12:18:09.295Z,60.10
2017-07-29T12:20:43.048Z,60.10
2017-07-29T12:23:16.696Z,60.30
2017-07-29T12:25:50.277Z,61.00
2017-07-29T12:28:24.619Z,59.30
2017-07-29T12:30:58.374Z,59.40
2017-07-29T12:33:32.021Z,58.80
2017-07-29T12:36:05.620Z,59.10
2017-07-29T12:38:39.280Z,58.90
2017-07-29T12:41:13.050Z,58.40
2017-07-29T12:43:46.666Z,58.80
2017-07-29T12:46:21.003Z,59.30
2017-07-29T12:48:54.586Z,59.20
2017-07-29T12:51:28.475Z,58.40
2017-07-29T12:54:02.079Z,58.80
2017-07-29T12:56:36.690Z,58.30
2017-07-29T12:59:10.318Z,58.20
2017-07-29T13:01:43.943Z,57.40
2017-07-29T13:04:17.518Z,57.60
2017-07-29T13:06:51.091Z,57.20
2017-07-29T13:09:24.663Z,55.50
2017-07-29T13:11:58.294Z,55.80
2017-07-29T13:14:32.635Z,55.40
2017-07-29T13:17:06.385Z,55.40
2017-07-29T13:19:40.042Z,56.60
2017-07-29T13:22:13.635Z,55.90
2017-07-29T13:24:47.259Z,56.40
2017-07-29T13:27:21.148Z,55.90
2017-07-29T13:29:55.483Z,57.00
2017-07-29T13:32:29.206Z,56.90
2017-07-29T13:35:03.599Z,57.60
2017-07-29T13:37:38.112Z,57.10
2017-07-29T13:40:11.687Z,57.00
2017-07-29T13:42:45.319Z,57.80
2017-07-29T13:45:18.881Z,57.70
2017-07-29T13:47:53.479Z,58.30
2017-07-29T13:50:27.833Z,58.00
2017-07-29T13:53:01.494Z,57.50
2017-07-29T13:55:35.052Z,57.50
2017-07-29T13:58:08.691Z,56.80
2017-07-29T14:00:42.448Z,56.90
2017-07-29T14:03:16.122Z,57.30
2017-07-29T14:05:50.442Z,59.20
2017-07-29T14:08:24.739Z,58.90
2017-07-29T14:10:58.391Z,58.80
2017-07-29T14:13:32.058Z,59.00
2017-07-29T14:16:06.591Z,59.40
2017-07-29T14:18:40.335Z,59.40
2017-07-29T14:21:13.967Z,59.70
2017-07-29T14:23:47.567Z,60.50
2017-07-29T14:26:21.306Z,60.00
2017-07-29T14:28:54.970Z,60.10
2017-07-29T14:31:29.397Z,61.90
2017-07-29T14:34:03.003Z,61.00
2017-07-29T14:36:36.602Z,61.80
2017-07-29T14:39:10.219Z,61.20
2017-07-29T14:41:43.995Z,60.90
2017-07-29T14:44:17.687Z,60.90
2017-07-29T14:46:52.044Z,62.70
2017-07-29T14:49:25.844Z,62.60
2017-07-29T14:51:59.450Z,62.10
2017-07-29T14:54:33.049Z,62.40
2017-07-29T14:57:06.647Z,63.70
2017-07-29T14:59:40.506Z,63.40
2017-07-29T15:02:14.191Z,63.10
2017-07-29T15:04:47.850Z,62.40
2017-07-29T15:07:21.487Z,62.60
2017-07-29T15:09:55.342Z,62.40
2017-07-29T15:12:28.966Z,62.30
2017-07-29T15:15:02.572Z,60.30
2017-07-29T15:17:36.231Z,60.10
2017-07-29T15:20:09.887Z,60.10
2017-07-29T15:22:44.288Z,59.30
2017-07-29T15:25:17.918Z,60.10
2017-07-29T15:27:51.576Z,60.30
2017-07-29T15:30:25.167Z,60.70
2017-07-29T15:32:58.777Z,60.60
2017-07-29T15:35:32.408Z,61.90
2017-07-29T15:38:06.051Z,61.30
2017-07-29T15:40:39.775Z,61.70
2017-07-29T15:43:14.303Z,62.70
2017-07-29T15:45:47.831Z,62.70
2017-07-29T15:48:21.434Z,62.30
2017-07-29T15:50:55.037Z,62.50
2017-07-29T15:53:28.590Z,62.30
2017-07-29T15:56:02.160Z,62.70
2017-07-29T15:58:35.754Z,62.90
2017-07-29T16:01:10.174Z,63.00
2017-07-29T16:03:44.709Z,61.60
2017-07-29T16:06:18.386Z,61.60
2017-07-29T16:08:51.883Z,62.30
2017-07-29T16:11:25.499Z,63.00
2017-07-29T16:13:59.104Z,62.80
2017-07-29T16:16:32.698Z,62.80
2017-07-29T16:19:07.311Z,63.90
2017-07-29T16:21:41.898Z,64.20
2017-07-29T16:24:15.594Z,64.20
2017-07-29T16:26:49.379Z,65.00
2017-07-29T16:29:23.082Z,64.70
2017-07-29T16:31:56.616Z,65.60
2017-07-29T16:34:30.259Z,65.00
2017-07-29T16:37:03.832Z,65.10
2017-07-29T16:39:37.440Z,64.30
2017-07-29T16:42:11.034Z,64.80
2017-07-29T16:44:44.618Z,64.90
2017-07-29T16:47:19.062Z,64.80
2017-07-29T16:49:52.662Z,63.80
2017-07-29T16:52:26.265Z,64.20
2017-07-29T16:55:00.791Z,64.20
2017-07-29T16:57:34.516Z,64.20
2017-07-29T17:00:08.168Z,63.80
2017-07-29T17:02:41.923Z,63.80
2017-07-29T17:05:15.483Z,64.60
2017-07-29T17:07:49.071Z,64.50
2017-07-29T17:10:22.868Z,64.50
2017-07-29T17:12:56.415Z,64.50
2017-07-29T17:15:30.032Z,65.20
2017-07-29T17:18:03.577Z,66.40
2017-07-29T17:20:37.226Z,65.20
2017-07-29T17:23:10.775Z,65.40
2017-07-29T17:25:44.384Z,65.00
2017-07-29T17:28:18.003Z,64.90
2017-07-29T17:30:51.635Z,65.30
2017-07-29T17:33:25.313Z,64.90
2017-07-29T17:35:58.907Z,65.20
2017-07-29T17:38:32.508Z,65.60
2017-07-29T17:41:06.043Z,66.10
2017-07-29T17:43:39.714Z,66.10
2017-07-29T17:46:13.516Z,66.50
2017-07-29T17:48:47.292Z,66.80
2017-07-29T17:51:22.306Z,66.80
2017-07-29T17:53:56.795Z,67.20
2017-07-29T17:56:31.135Z,67.70
2017-07-29T17:59:05.546Z,68.00
2017-07-29T18:01:39.254Z,68.00
2017-07-29T18:04:13.001Z,67.80
2017-07-29T18:06:46.626Z,68.50
2017-07-29T18:09:20.307Z,67.80
2017-07-29T18:11:53.873Z,67.50
2017-07-29T18:14:28.306Z,66.80
2017-07-29T18:17:02.786Z,66.30
2017-07-29T18:19:36.403Z,66.30
2017-07-29T18:22:10.014Z,66.60
2017-07-29T18:24:43.635Z,66.80
2017-07-29T18:27:18.243Z,66.30
2017-07-29T18:29:52.655Z,66.00
2017-07-29T18:32:20.758Z,66.10
2017-07-29T18:34:48.824Z,65.70
2017-07-29T18:37:16.893Z,66.10
2017-07-29T18:39:44.959Z,65.70
2017-07-29T18:42:13.026Z,66.70
2017-07-29T18:44:41.095Z,67.20
2017-07-29T18:47:09.162Z,68.10
2017-07-29T18:49:37.214Z,69.40
2017-07-29T18:52:06.074Z,69.00
2017-07-29T18:54:34.134Z,69.00
2017-07-29T18:57:02.923Z,69.10
2017-07-29T18:59:30.992Z,69.90
2017-07-29T19:01:59.041Z,70.40
2017-07-29T19:04:27.119Z,71.00
2017-07-29T19:06:55.210Z,70.80
2017-07-29T19:09:23.295Z,70.60
2017-07-29T19:11:51.355Z,71.20
2017-07-29T19:14:19.427Z,72.00
2017-07-29T19:16:47.506Z,72.20
2017-07-29T19:19:15.795Z,72.50
2017-07-29T19:21:43.847Z,72.90
2017-07-29T19:24:11.914Z,73.50
2017-07-29T19:26:40.037Z,73.60
2017-07-29T19:29:08.085Z,74.00
2017-07-29T19:31:36.902Z,75.10
2017-07-29T19:34:04.974Z,75.10
2017-07-29T19:36:33.035Z,75.20
2017-07-29T19:39:01.103Z,75.30
2017-07-29T19:41:29.162Z,75.10
2017-07-29T19:43:58.007Z,75.20
2017-07-29T19:46:26.072Z,75.10
2017-07-29T19:48:54.146Z,75.10
2017-07-29T19:51:22.236Z,75.30
2017-07-29T19:53:50.353Z,75.90
2017-07-29T19:56:18.421Z,76.00
2017-07-29T19:58:47.271Z,76.40
2017-07-29T20:01:15.391Z,76.40
2017-07-29T20:03:44.188Z,76.20
2017-07-29T20:06:12.226Z,76.20
2017-07-29T20:08:41.431Z,76.80
2017-07-29T20:11:10.255Z,76.60
2017-07-29T20:13:38.317Z,76.60
2017-07-29T20:16:06.386Z,76.80
2017-07-29T20:18:34.448Z,77.00
2017-07-29T20:21:02.522Z,77.00
2017-07-29T20:23:30.594Z,76.90
2017-07-29T20:25:58.663Z,76.80
2017-07-29T20:28:26.736Z,76.70
2017-07-29T20:30:54.803Z,76.90
2017-07-29T20:33:22.891Z,77.20
2017-07-29T20:35:50.947Z,77.40
2017-07-29T20:38:19.026Z,77.70
2017-07-29T20:40:47.102Z,77.50
2017-07-29T20:43:15.162Z,77.60
2017-07-29T20:45:43.234Z,77.40
2017-07-29T20:48:11.320Z,77.90
2017-07-29T20:50:39.385Z,79.10
2017-07-29T20:53:07.475Z,80.40
2017-07-29T20:55:35.516Z,82.20
2017-07-29T20:58:03.607Z,81.60
2017-07-29T21:00:31.700Z,81.70
2017-07-29T21:02:59.761Z,83.60
2017-07-29T21:05:27.946Z,83.30
2017-07-29T21:07:56.013Z,81.90
2017-07-29T21:10:24.093Z,81.00
2017-07-29T21:12:52.163Z,82.80
2017-07-29T21:15:20.250Z,82.00
2017-07-29T21:17:48.314Z,82.60
2017-07-29T21:20:16.422Z,82.50
2017-07-29T21:22:45.318Z,78.50
2017-07-29T21:25:14.142Z,80.00
2017-07-29T21:27:42.218Z,80.00
2017-07-29T21:30:10.287Z,78.40
2017-07-29T21:32:38.499Z,77.90
2017-07-29T21:35:07.519Z,76.80
2017-07-29T21:37:35.582Z,76.70
2017-07-29T21:40:04.428Z,76.20
2017-07-29T21:42:32.482Z,76.20
2017-07-29T21:45:00.550Z,75.10
2017-07-29T21:47:28.646Z,75.50
2017-07-29T21:49:56.743Z,75.50
2017-07-29T21:52:24.806Z,75.30
2017-07-29T21:54:52.886Z,74.80
2017-07-29T21:57:20.971Z,75.10
2017-07-29T21:59:49.018Z,75.10
2017-07-29T22:02:17.082Z,75.10
2017-07-29T22:04:45.157Z,74.80
2017-07-29T22:07:13.230Z,75.00
2017-07-29T22:09:41.306Z,74.90
2017-07-29T22:12:09.390Z,74.40
2017-07-29T22:14:38.267Z,74.80
2017-07-29T22:17:06.336Z,74.00
2017-07-29T22:19:34.413Z,73.90
2017-07-29T22:22:02.478Z,73.30
2017-07-29T22:24:30.547Z,73.40
2017-07-29T22:26:58.624Z,73.30
2017-07-29T22:29:26.683Z,73.30
2017-07-29T22:31:54.761Z,72.80
2017-07-29T22:34:22.822Z,72.80
2017-07-29T22:36:50.900Z,72.40
2017-07-29T22:39:18.964Z,71.90
2017-07-29T22:41:47.059Z,72.90
2017-07-29T22:44:16.052Z,72.80
2017-07-29T22:46:44.110Z,73.40
2017-07-29T22:49:12.170Z,74.80
2017-07-29T22:51:40.223Z,75.30
2017-07-29T22:54:08.306Z,76.40
2017-07-29T22:56:36.402Z,75.30
2017-07-29T22:59:04.470Z,74.90
2017-07-29T23:01:32.526Z,74.80
2017-07-29T23:04:00.598Z,74.80
2017-07-29T23:06:28.650Z,74.40
2017-07-29T23:08:56.714Z,74.60
2017-07-29T23:11:24.768Z,74.80
2017-07-29T23:13:53.590Z,75.20
2017-07-29T23:16:22.078Z,75.10
2017-07-29T23:18:50.145Z,75.40
2017-07-29T23:21:18.201Z,75.20
2017-07-29T23:23:46.291Z,75.50
2017-07-29T23:26:14.367Z,75.90
2017-07-29T23:28:42.415Z,75.70
2017-07-29T23:31:10.462Z,75.60
2017-07-29T23:33:39.299Z,76.10
2017-07-29T23:36:07.356Z,76.10
2017-07-29T23:38:35.423Z,76.20
2017-07-29T23:41:03.461Z,76.50
2017-07-29T23:43:32.286Z,77.20
2017-07-29T23:46:00.359Z,77.10
2017-07-29T23:48:28.444Z,77.70
2017-07-29T23:50:56.495Z,77.70
2017-07-29T23:53:24.561Z,77.30
2017-07-29T23:55:52.638Z,76.90
2017-07-29T23:58:20.686Z,76.60
